createdAt,value
2019-06-07T00:00:29.755Z,99.90
2019-06-07T00:02:42.103Z,99.90
2019-06-07T00:05:13.243Z,99.90
2019-06-07T00:07:41.958Z,99.90
2019-06-07T00:10:15.435Z,99.90
2019-06-07T00:12:41.852Z,99.90
2019-06-07T00:15:14.978Z,99.90
2019-06-07T00:17:40.741Z,99.90
2019-06-07T00:20:13.802Z,99.90
2019-06-07T00:22:40.213Z,99.50
2019-06-07T00:25:12.482Z,99.20
2019-06-07T00:27:39.475Z,98.90
2019-06-07T00:30:32.520Z,98.60
2019-06-07T00:32:40.153Z,98.40
2019-06-07T00:35:11.943Z,98.20
2019-06-07T00:37:40.808Z,98.20
2019-06-07T00:40:17.325Z,98.10
2019-06-07T00:42:40.245Z,98.00
2019-06-07T00:45:11.198Z,97.90
2019-06-07T00:47:40.209Z,97.90
2019-06-07T00:50:09.435Z,97.90
2019-06-07T00:55:09.304Z,97.80
2019-06-07T00:57:38.175Z,98.20
2019-06-07T01:00:08.775Z,98.50
2019-06-07T01:02:37.369Z,99.40
2019-06-07T01:05:07.651Z,99.90
2019-06-07T01:07:36.378Z,99.90
2019-06-07T01:10:08.238Z,99.90
2019-06-07T01:12:36.896Z,99.60
2019-06-07T01:15:06.711Z,99.80
2019-06-07T01:17:50.131Z,99.40
2019-06-07T01:20:08.122Z,99.20
2019-06-07T01:22:36.762Z,99.20
2019-06-07T01:25:06.874Z,99.20
2019-06-07T01:27:35.531Z,99.40
2019-06-07T01:30:12.162Z,99.90
2019-06-07T01:32:40.919Z,99.90
2019-06-07T01:35:09.903Z,99.90
2019-06-07T01:37:38.554Z,99.90
2019-06-07T01:40:09.232Z,99.90
2019-06-07T01:42:37.890Z,99.90
2019-06-07T01:45:08.085Z,99.90
2019-06-07T01:47:36.792Z,99.90
2019-06-07T01:50:07.536Z,99.90
2019-06-07T01:52:36.290Z,99.90
2019-06-07T01:55:06.676Z,99.90
2019-06-07T01:57:47.326Z,99.80
2019-06-07T02:00:09.907Z,99.40
2019-06-07T02:02:38.577Z,99.10
2019-06-07T02:05:08.342Z,98.80
2019-06-07T02:07:37.052Z,98.60
2019-06-07T02:10:07.013Z,98.50
2019-06-07T02:12:42.731Z,98.40
2019-06-07T02:15:09.915Z,98.20
2019-06-07T02:17:39.180Z,98.00
2019-06-07T02:20:09.560Z,97.60
2019-06-07T02:22:38.103Z,97.40
2019-06-07T02:27:37.705Z,97.40
2019-06-07T02:30:37.221Z,97.30
2019-06-07T02:32:37.868Z,97.60
2019-06-07T02:35:06.996Z,97.60
2019-06-07T02:37:37.000Z,97.60
2019-06-07T02:40:09.109Z,97.90
2019-06-07T02:42:41.971Z,98.00
2019-06-07T02:45:10.854Z,97.80
2019-06-07T02:47:39.961Z,97.80
2019-06-07T02:50:10.718Z,98.10
2019-06-07T02:52:40.909Z,98.10
2019-06-07T02:55:11.026Z,97.90
2019-06-07T02:57:41.766Z,97.70
2019-06-07T03:00:40.799Z,97.50
2019-06-07T03:02:43.655Z,97.40
2019-06-07T03:05:12.687Z,97.20
2019-06-07T03:07:45.351Z,97.10
2019-06-07T03:10:13.300Z,97.00
2019-06-07T03:12:45.303Z,97.00
2019-06-07T03:15:32.198Z,97.20
2019-06-07T03:18:00.993Z,97.30
2019-06-07T03:20:34.407Z,97.30
2019-06-07T03:23:04.335Z,97.30
2019-06-07T03:25:37.727Z,97.40
2019-06-07T03:28:07.377Z,97.50
2019-06-07T03:30:48.822Z,97.50
2019-06-07T03:33:06.262Z,97.50
2019-06-07T03:35:37.308Z,97.60
2019-06-07T03:38:05.072Z,97.60
2019-06-07T03:40:40.189Z,97.60
2019-06-07T03:43:08.853Z,97.40
2019-06-07T03:45:41.221Z,97.20
2019-06-07T03:48:07.645Z,97.00
2019-06-07T03:50:41.354Z,97.00
2019-06-07T03:53:06.576Z,96.90
2019-06-07T03:55:38.557Z,96.70
2019-06-07T04:00:39.030Z,96.40
2019-06-07T04:03:05.976Z,96.30
2019-06-07T04:05:40.247Z,96.30
2019-06-07T04:08:05.057Z,96.30
2019-06-07T04:10:55.773Z,96.30
2019-06-07T04:13:03.934Z,96.40
2019-06-07T04:15:36.056Z,96.40
2019-06-07T04:18:04.095Z,96.50
2019-06-07T04:20:34.572Z,96.40
2019-06-07T04:23:03.305Z,96.50
2019-06-07T04:25:35.234Z,96.50
2019-06-07T04:28:02.139Z,96.50
2019-06-07T04:30:41.520Z,96.40
2019-06-07T04:33:11.822Z,96.40
2019-06-07T04:35:43.115Z,96.40
2019-06-07T04:38:12.338Z,96.50
2019-06-07T04:40:47.120Z,96.40
2019-06-07T04:43:15.705Z,96.20
2019-06-07T04:45:50.616Z,96.10
2019-06-07T04:48:14.768Z,96.10
2019-06-07T04:50:44.124Z,95.90
2019-06-07T04:53:13.735Z,95.90
2019-06-07T04:55:42.316Z,95.90
2019-06-07T04:58:10.968Z,95.90
2019-06-07T05:00:53.252Z,95.90
2019-06-07T05:03:09.828Z,95.80
2019-06-07T05:05:43.124Z,95.90
2019-06-07T05:08:27.112Z,96.00
2019-06-07T05:10:43.472Z,95.90
2019-06-07T05:13:09.389Z,95.90
2019-06-07T05:15:40.262Z,95.90
2019-06-07T05:18:08.381Z,95.90
2019-06-07T05:20:40.119Z,96.00
2019-06-07T05:23:07.270Z,96.10
2019-06-07T05:25:38.409Z,96.10
2019-06-07T05:28:06.045Z,96.10
2019-06-07T05:31:02.097Z,96.00
2019-06-07T05:33:08.705Z,95.90
2019-06-07T05:35:41.748Z,95.90
2019-06-07T05:38:09.581Z,95.90
2019-06-07T05:40:48.516Z,96.00
2019-06-07T05:43:25.959Z,96.00
2019-06-07T05:45:54.888Z,96.00
2019-06-07T05:48:23.627Z,96.00
2019-06-07T05:50:56.774Z,96.00
2019-06-07T05:53:22.460Z,96.00
2019-06-07T05:55:51.016Z,96.10
2019-06-07T05:58:19.735Z,96.20
2019-06-07T06:00:48.432Z,96.30
2019-06-07T06:03:17.245Z,96.40
2019-06-07T06:05:54.593Z,96.60
2019-06-07T06:08:16.325Z,96.60
2019-06-07T06:10:48.495Z,97.10
2019-06-07T06:13:15.380Z,97.30
2019-06-07T06:15:58.483Z,97.50
2019-06-07T06:18:14.375Z,97.50
2019-06-07T06:21:05.365Z,97.70
2019-06-07T06:23:13.295Z,97.80
2019-06-07T06:25:49.772Z,97.70
2019-06-07T06:28:13.269Z,97.90
2019-06-07T06:30:47.017Z,97.60
2019-06-07T06:33:30.837Z,97.70
2019-06-07T06:35:48.404Z,97.60
2019-06-07T06:38:13.799Z,97.30
2019-06-07T06:40:46.306Z,97.30
2019-06-07T06:43:12.602Z,97.10
2019-06-07T06:45:42.830Z,97.00
2019-06-07T06:48:11.494Z,96.90
2019-06-07T06:50:41.100Z,97.00
2019-06-07T06:53:09.927Z,96.90
2019-06-07T06:55:39.113Z,96.90
2019-06-07T06:58:07.753Z,97.00
2019-06-07T07:00:56.869Z,97.00
2019-06-07T07:05:54.602Z,96.90
2019-06-07T07:08:24.902Z,96.90
2019-06-07T07:10:55.065Z,96.90
2019-06-07T07:13:23.916Z,96.90
2019-06-07T07:15:57.939Z,96.60
2019-06-07T07:18:22.798Z,96.90
2019-06-07T07:20:55.714Z,96.70
2019-06-07T07:23:21.724Z,97.00
2019-06-07T07:25:55.388Z,97.20
2019-06-07T07:28:20.646Z,97.20
2019-06-07T07:30:57.070Z,97.20
2019-06-07T07:33:26.041Z,97.00
2019-06-07T07:36:15.660Z,97.00
2019-06-07T07:38:24.908Z,96.90
2019-06-07T07:41:14.075Z,96.70
2019-06-07T07:43:31.742Z,96.70
2019-06-07T07:46:29.762Z,96.80
2019-06-07T07:48:43.547Z,96.60
2019-06-07T07:51:12.247Z,96.50
2019-06-07T07:53:52.032Z,96.40
2019-06-07T07:56:11.156Z,96.30
2019-06-07T07:58:39.755Z,96.20
2019-06-07T08:01:10.969Z,96.20
2019-06-07T08:03:38.913Z,96.10
2019-06-07T08:06:07.566Z,96.30
2019-06-07T08:08:36.119Z,96.40
2019-06-07T08:11:04.942Z,96.20
2019-06-07T08:13:33.651Z,96.40
2019-06-07T08:16:11.488Z,96.10
2019-06-07T08:18:32.508Z,96.10
2019-06-07T08:21:21.792Z,96.00
2019-06-07T08:23:31.302Z,96.10
2019-06-07T08:26:01.025Z,96.00
2019-06-07T08:28:30.028Z,96.00
2019-06-07T08:31:06.421Z,96.30
2019-06-07T08:33:28.909Z,96.30
2019-06-07T08:36:10.476Z,96.00
2019-06-07T08:38:44.974Z,96.00
2019-06-07T08:41:10.740Z,95.90
2019-06-07T08:43:28.420Z,95.80
2019-06-07T08:46:02.340Z,95.70
2019-06-07T08:48:29.948Z,95.60
2019-06-07T08:51:02.220Z,95.50
2019-06-07T08:53:31.462Z,95.50
2019-06-07T08:56:08.919Z,95.50
2019-06-07T08:58:31.888Z,95.50
2019-06-07T09:01:07.800Z,95.50
2019-06-07T09:03:30.711Z,95.50
2019-06-07T09:06:06.179Z,95.40
2019-06-07T09:08:30.900Z,95.40
2019-06-07T09:11:05.276Z,95.30
2019-06-07T09:13:30.007Z,95.30
2019-06-07T09:16:04.866Z,95.30
2019-06-07T09:18:43.038Z,95.30
2019-06-07T09:21:01.165Z,95.30
2019-06-07T09:23:29.650Z,95.20
2019-06-07T09:26:06.399Z,95.20
2019-06-07T09:28:28.735Z,95.10
2019-06-07T09:30:59.616Z,95.10
2019-06-07T09:33:27.547Z,95.00
2019-06-07T09:35:58.086Z,95.00
2019-06-07T09:38:27.235Z,94.80
2019-06-07T09:40:57.607Z,94.70
2019-06-07T09:45:58.714Z,94.60
2019-06-07T09:49:09.767Z,94.40
2019-06-07T09:51:02.034Z,94.20
2019-06-07T09:53:27.755Z,94.10
2019-06-07T09:55:56.815Z,93.80
2019-06-07T10:00:59.286Z,93.20
2019-06-07T10:03:27.017Z,93.20
2019-06-07T10:05:55.649Z,93.30
2019-06-07T10:09:42.254Z,93.30
2019-06-07T10:10:54.459Z,93.30
2019-06-07T10:13:23.140Z,93.40
2019-06-07T10:15:53.635Z,93.20
2019-06-07T10:18:21.945Z,93.00
2019-06-07T10:20:50.667Z,92.80
2019-06-07T10:23:19.269Z,92.80
2019-06-07T10:25:47.809Z,92.70
2019-06-07T10:28:16.479Z,92.50
2019-06-07T10:30:45.041Z,92.30
2019-06-07T10:33:13.622Z,92.30
2019-06-07T10:35:42.194Z,92.30
2019-06-07T10:38:10.799Z,92.30
2019-06-07T10:40:39.426Z,92.30
2019-06-07T10:43:09.135Z,92.40
2019-06-07T10:45:38.282Z,92.10
2019-06-07T10:48:07.622Z,92.10
2019-06-07T10:50:36.364Z,92.10
2019-06-07T10:53:06.471Z,91.90
2019-06-07T10:55:35.048Z,91.80
2019-06-07T10:58:04.724Z,91.90
2019-06-07T11:00:33.512Z,92.00
2019-06-07T11:03:03.632Z,91.80
2019-06-07T11:05:32.358Z,91.80
2019-06-07T11:08:01.133Z,91.90
2019-06-07T11:10:29.646Z,91.80
2019-06-07T11:12:59.876Z,91.90
2019-06-07T11:15:28.447Z,91.80
2019-06-07T11:17:57.014Z,91.80
2019-06-07T11:20:25.671Z,91.70
2019-06-07T11:22:54.241Z,91.80
2019-06-07T11:25:23.143Z,91.80
2019-06-07T11:27:51.702Z,91.90
2019-06-07T11:30:20.544Z,91.90
2019-06-07T11:32:49.174Z,91.90
2019-06-07T11:35:19.036Z,91.90
2019-06-07T11:37:47.700Z,91.70
2019-06-07T11:40:32.045Z,91.70
2019-06-07T11:42:46.904Z,91.70
2019-06-07T11:45:16.362Z,91.70
2019-06-07T11:47:44.932Z,91.70
2019-06-07T11:50:13.848Z,91.80
2019-06-07T11:52:45.450Z,91.80
2019-06-07T11:55:13.581Z,91.60
2019-06-07T11:57:43.203Z,91.40
2019-06-07T12:00:16.122Z,91.50
2019-06-07T12:02:45.438Z,91.40
2019-06-07T12:05:17.169Z,91.40
2019-06-07T12:07:44.615Z,91.40
2019-06-07T12:10:18.138Z,91.40
2019-06-07T12:12:45.133Z,91.40
2019-06-07T12:15:15.046Z,91.40
2019-06-07T12:17:43.785Z,91.20
2019-06-07T12:20:14.779Z,91.20
2019-06-07T12:22:43.550Z,91.00
2019-06-07T12:25:12.897Z,90.80
2019-06-07T12:27:42.604Z,90.70
2019-06-07T12:30:20.301Z,90.70
2019-06-07T12:32:42.644Z,91.10
2019-06-07T12:35:11.576Z,90.70
2019-06-07T12:37:44.423Z,90.50
2019-06-07T12:40:15.678Z,90.60
2019-06-07T12:42:41.321Z,90.70
2019-06-07T12:45:10.534Z,90.60
2019-06-07T12:47:39.637Z,90.60
2019-06-07T12:50:08.719Z,90.30
2019-06-07T12:52:37.413Z,90.30
2019-06-07T12:55:07.440Z,90.40
2019-06-07T12:57:36.084Z,90.30
2019-06-07T13:00:13.928Z,90.30
2019-06-07T13:02:42.830Z,90.20
2019-06-07T13:05:12.245Z,90.20
2019-06-07T13:07:40.850Z,90.10
2019-06-07T13:10:09.930Z,89.60
2019-06-07T13:12:38.634Z,89.30
2019-06-07T13:15:08.245Z,89.10
2019-06-07T13:17:37.535Z,88.80
2019-06-07T13:20:07.545Z,88.70
2019-06-07T13:22:36.355Z,88.80
2019-06-07T13:25:06.914Z,88.80
2019-06-07T13:27:35.894Z,88.70
2019-06-07T13:30:10.434Z,88.30
2019-06-07T13:32:37.402Z,87.90
2019-06-07T13:35:07.280Z,87.40
2019-06-07T13:37:36.029Z,87.20
2019-06-07T13:40:06.534Z,87.50
2019-06-07T13:42:35.252Z,88.20
2019-06-07T13:45:07.255Z,87.50
2019-06-07T13:47:35.925Z,86.90
2019-06-07T13:50:06.384Z,86.40
2019-06-07T13:52:35.028Z,86.40
2019-06-07T13:55:05.008Z,86.60
2019-06-07T13:57:33.598Z,86.80
2019-06-07T14:00:10.302Z,86.00
2019-06-07T14:02:32.452Z,86.10
2019-06-07T14:05:01.038Z,85.70
2019-06-07T14:07:30.089Z,85.20
2019-06-07T14:09:58.836Z,85.40
2019-06-07T14:12:27.866Z,85.00
2019-06-07T14:14:56.465Z,85.00
2019-06-07T14:17:25.274Z,85.30
2019-06-07T14:19:53.909Z,85.20
2019-06-07T14:22:22.750Z,85.00
2019-06-07T14:24:51.529Z,84.80
2019-06-07T14:27:21.379Z,84.50
2019-06-07T14:29:49.960Z,83.50
2019-06-07T14:32:18.539Z,83.20
2019-06-07T14:34:47.171Z,83.30
2019-06-07T14:37:15.747Z,82.90
2019-06-07T14:39:44.378Z,82.50
2019-06-07T14:42:14.801Z,82.80
2019-06-07T14:44:43.333Z,82.50
2019-06-07T14:47:11.953Z,82.20
2019-06-07T14:49:40.523Z,81.40
2019-06-07T14:52:14.457Z,81.00
2019-06-07T14:54:43.444Z,81.40
2019-06-07T14:57:12.062Z,81.70
2019-06-07T14:59:40.720Z,82.50
2019-06-07T15:02:09.286Z,81.20
2019-06-07T15:04:42.514Z,80.50
2019-06-07T15:07:12.715Z,80.30
2019-06-07T15:09:41.351Z,80.30
2019-06-07T15:12:24.159Z,80.10
2019-06-07T15:14:40.852Z,80.40
2019-06-07T15:17:09.582Z,79.70
2019-06-07T15:19:39.102Z,80.00
2019-06-07T15:22:07.744Z,80.00
2019-06-07T15:24:39.353Z,80.30
2019-06-07T15:27:06.534Z,80.60
2019-06-07T15:29:35.968Z,80.00
2019-06-07T15:32:04.790Z,79.10
2019-06-07T15:34:34.343Z,78.40
2019-06-07T15:37:03.060Z,79.30
2019-06-07T15:39:32.560Z,78.50
2019-06-07T15:42:01.161Z,78.50
2019-06-07T15:44:31.062Z,77.90
2019-06-07T15:46:59.952Z,77.40
2019-06-07T15:49:30.207Z,77.10
2019-06-07T15:51:58.861Z,76.60
2019-06-07T15:54:27.532Z,76.20
2019-06-07T15:56:56.120Z,75.00
2019-06-07T15:59:24.735Z,74.80
2019-06-07T16:01:53.328Z,75.00
2019-06-07T16:04:21.899Z,75.60
2019-06-07T16:06:50.562Z,74.70
2019-06-07T16:09:19.917Z,74.20
2019-06-07T16:11:48.463Z,74.00
2019-06-07T16:14:17.080Z,74.20
2019-06-07T16:16:46.097Z,74.20
2019-06-07T16:19:14.654Z,73.90
2019-06-07T16:21:43.645Z,73.40
2019-06-07T16:24:12.355Z,73.50
2019-06-07T16:26:42.322Z,74.60
2019-06-07T16:29:11.273Z,73.00
2019-06-07T16:31:40.991Z,71.60
2019-06-07T16:34:09.621Z,71.20
2019-06-07T16:36:38.402Z,71.60
2019-06-07T16:39:08.844Z,71.20
2019-06-07T16:41:38.351Z,71.00
2019-06-07T16:44:07.107Z,70.40
2019-06-07T16:46:36.697Z,69.60
2019-06-07T16:49:05.358Z,68.40
2019-06-07T16:51:33.992Z,67.70
2019-06-07T16:54:02.861Z,66.90
2019-06-07T16:56:31.562Z,66.30
2019-06-07T16:59:00.248Z,66.50
2019-06-07T17:01:28.810Z,67.00
2019-06-07T17:03:57.868Z,67.40
2019-06-07T17:06:26.775Z,67.50
2019-06-07T17:08:55.779Z,68.50
2019-06-07T17:11:24.404Z,68.00
2019-06-07T17:13:52.975Z,67.90
2019-06-07T17:16:21.557Z,67.30
2019-06-07T17:18:50.165Z,67.20
2019-06-07T17:21:18.746Z,67.10
2019-06-07T17:23:47.493Z,67.70
2019-06-07T17:26:16.097Z,67.80
2019-06-07T17:28:45.809Z,67.40
2019-06-07T17:31:14.681Z,66.10
2019-06-07T17:33:43.967Z,64.70
2019-06-07T17:36:12.662Z,64.10
2019-06-07T17:38:42.371Z,64.00
2019-06-07T17:41:11.150Z,63.50
2019-06-07T17:43:49.426Z,63.00
2019-06-07T17:46:10.040Z,61.80
2019-06-07T17:48:38.662Z,61.40
2019-06-07T17:51:07.418Z,61.90
2019-06-07T17:53:36.030Z,62.00
2019-06-07T17:56:04.812Z,63.40
2019-06-07T17:58:33.380Z,64.50
2019-06-07T18:01:01.963Z,65.30
2019-06-07T18:03:30.639Z,65.90
2019-06-07T18:06:02.413Z,66.30
2019-06-07T18:08:31.153Z,66.50
2019-06-07T18:10:59.781Z,65.90
2019-06-07T18:13:28.391Z,65.30
2019-06-07T18:15:59.685Z,65.50
2019-06-07T18:18:27.691Z,65.80
2019-06-07T18:20:56.330Z,66.40
2019-06-07T18:23:24.951Z,66.90
2019-06-07T18:25:54.781Z,67.90
2019-06-07T18:28:23.738Z,68.90
2019-06-07T18:30:52.828Z,69.80
2019-06-07T18:33:21.500Z,70.30
2019-06-07T18:35:51.281Z,71.10
2019-06-07T18:38:20.245Z,71.70
2019-06-07T18:40:49.136Z,72.10
2019-06-07T18:43:17.730Z,72.50
2019-06-07T18:45:47.317Z,72.40
2019-06-07T18:48:16.036Z,72.20
2019-06-07T18:50:44.841Z,72.40
2019-06-07T18:53:13.435Z,72.10
2019-06-07T18:55:42.031Z,72.30
2019-06-07T18:58:10.614Z,72.00
2019-06-07T19:00:39.385Z,71.60
2019-06-07T19:03:07.967Z,71.50
2019-06-07T19:05:36.632Z,71.20
2019-06-07T19:08:05.270Z,71.20
2019-06-07T19:10:33.841Z,71.00
2019-06-07T19:13:02.419Z,70.80
2019-06-07T19:15:31.167Z,70.70
2019-06-07T19:18:00.876Z,70.70
2019-06-07T19:20:29.862Z,70.90
2019-06-07T19:22:58.457Z,71.50
2019-06-07T19:25:27.009Z,71.90
2019-06-07T19:27:56.943Z,72.20
2019-06-07T19:30:25.897Z,72.60
2019-06-07T19:32:55.083Z,72.70
2019-06-07T19:35:23.953Z,73.30
2019-06-07T19:37:53.767Z,74.20
2019-06-07T19:40:22.715Z,73.80
2019-06-07T19:42:52.162Z,74.30
2019-06-07T19:45:30.814Z,75.00
2019-06-07T19:47:52.264Z,76.80
2019-06-07T19:50:21.460Z,78.50
2019-06-07T19:52:50.052Z,79.80
2019-06-07T19:55:18.812Z,82.80
2019-06-07T19:57:50.027Z,90.20
2019-06-07T20:00:17.790Z,91.90
2019-06-07T20:02:46.361Z,93.40
2019-06-07T20:05:15.928Z,96.30
2019-06-07T20:07:44.640Z,98.70
2019-06-07T20:10:14.141Z,99.90
2019-06-07T20:12:42.780Z,99.90
2019-06-07T20:15:27.960Z,99.90
2019-06-07T20:17:43.689Z,99.90
2019-06-07T20:20:12.782Z,99.90
2019-06-07T20:22:41.389Z,99.90
2019-06-07T20:25:10.179Z,99.90
2019-06-07T20:27:38.848Z,99.00
2019-06-07T20:30:11.478Z,98.50
2019-06-07T20:32:40.053Z,98.00
2019-06-07T20:35:08.888Z,97.70
2019-06-07T20:37:37.468Z,97.70
2019-06-07T20:40:22.351Z,97.90
2019-06-07T20:42:39.811Z,97.50
2019-06-07T20:45:08.956Z,96.90
2019-06-07T20:47:37.679Z,96.50
2019-06-07T20:50:09.397Z,96.10
2019-06-07T20:52:38.512Z,96.00
2019-06-07T20:55:09.616Z,96.00
2019-06-07T20:57:38.495Z,95.50
2019-06-07T21:00:16.051Z,95.40
2019-06-07T21:02:39.433Z,95.70
2019-06-07T21:05:09.536Z,96.00
2019-06-07T21:07:38.558Z,96.30
2019-06-07T21:10:10.935Z,96.10
2019-06-07T21:12:39.745Z,96.20
2019-06-07T21:15:12.901Z,96.20
2019-06-07T21:17:39.128Z,96.00
2019-06-07T21:20:11.784Z,95.70
2019-06-07T21:22:39.591Z,95.50
2019-06-07T21:25:09.548Z,95.00
2019-06-07T21:27:38.289Z,94.90
2019-06-07T21:30:09.650Z,94.30
2019-06-07T21:32:38.419Z,94.50
2019-06-07T21:35:12.367Z,94.60
2019-06-07T21:37:41.166Z,94.40
2019-06-07T21:40:10.396Z,94.30
2019-06-07T21:42:39.401Z,94.60
2019-06-07T21:45:09.844Z,94.70
2019-06-07T21:47:39.006Z,94.50
2019-06-07T21:50:08.706Z,94.60
2019-06-07T21:52:37.459Z,94.40
2019-06-07T21:55:08.893Z,94.20
2019-06-07T21:57:38.115Z,94.10
2019-06-07T22:00:11.628Z,94.60
2019-06-07T22:02:40.313Z,95.00
2019-06-07T22:05:09.607Z,95.10
2019-06-07T22:07:38.286Z,95.20
2019-06-07T22:10:08.010Z,95.60
2019-06-07T22:12:37.082Z,95.90
2019-06-07T22:15:27.136Z,96.30
2019-06-07T22:17:39.168Z,96.70
2019-06-07T22:20:08.839Z,96.90
2019-06-07T22:22:37.485Z,97.20
2019-06-07T22:25:09.395Z,96.90
2019-06-07T22:27:38.148Z,96.60
2019-06-07T22:30:08.587Z,96.30
2019-06-07T22:32:37.378Z,96.10
2019-06-07T22:35:06.914Z,96.30
2019-06-07T22:37:35.653Z,96.20
2019-06-07T22:40:08.614Z,96.10
2019-06-07T22:42:37.555Z,96.00
2019-06-07T22:45:08.162Z,96.50
2019-06-07T22:47:37.077Z,96.30
2019-06-07T22:50:08.584Z,96.30
2019-06-07T22:52:37.432Z,96.20
2019-06-07T22:55:07.752Z,95.80
2019-06-07T22:57:54.215Z,95.40
2019-06-07T23:00:23.395Z,95.30
2019-06-07T23:02:52.100Z,94.70
2019-06-07T23:05:20.738Z,94.10
2019-06-07T23:07:49.386Z,93.50
2019-06-07T23:10:19.634Z,92.70
2019-06-07T23:12:48.248Z,91.90
2019-06-07T23:15:17.964Z,91.60
2019-06-07T23:17:47.165Z,91.90
2019-06-07T23:20:15.973Z,91.70
2019-06-07T23:22:45.435Z,91.30
2019-06-07T23:25:17.755Z,91.60
2019-06-07T23:27:44.365Z,91.50
2019-06-07T23:30:14.556Z,91.70
2019-06-07T23:32:43.158Z,91.60
2019-06-07T23:35:12.800Z,91.70
2019-06-07T23:37:41.456Z,91.70
2019-06-07T23:40:13.091Z,91.50
2019-06-07T23:42:41.899Z,91.30
2019-06-07T23:45:12.063Z,91.00
2019-06-07T23:47:40.839Z,90.70
2019-06-07T23:50:11.490Z,90.50
2019-06-07T23:52:40.202Z,90.40
2019-06-07T23:55:09.211Z,90.20
2019-06-07T23:57:37.803Z,90.00
